createdAt,value
2022-11-25T00:00:13.098Z,1007.4
2022-11-25T00:01:15.978Z,1007.4
2022-11-25T00:02:18.613Z,1007.4
2022-11-25T00:03:22.363Z,1007.4
2022-11-25T00:04:25.407Z,1007.4
2022-11-25T00:05:28.249Z,1007.4
2022-11-25T00:06:30.944Z,1007.4
2022-11-25T00:07:34.370Z,1007.4
2022-11-25T00:08:37.252Z,1007.4
2022-11-25T00:09:40.613Z,1007.4
2022-11-25T00:10:43.400Z,1007.4
2022-11-25T00:11:47.187Z,1007.3
2022-11-25T00:12:50.942Z,1007.3
2022-11-25T00:13:53.711Z,1007.3
2022-11-25T00:14:56.760Z,1007.3
2022-11-25T00:15:59.180Z,1007.3
2022-11-25T00:17:02.507Z,1007.3
2022-11-25T00:18:07.308Z,1007.3
2022-11-25T00:19:10.290Z,1007.3
2022-11-25T00:20:13.071Z,1007.3
2022-11-25T00:21:16.059Z,1007.3
2022-11-25T00:22:19.145Z,1007.3
2022-11-25T00:23:22.276Z,1007.3
2022-11-25T00:24:27.881Z,1007.3
2022-11-25T00:25:30.385Z,1007.3
2022-11-25T00:26:34.079Z,1007.3
2022-11-25T00:27:37.653Z,1007.3
2022-11-25T00:28:41.073Z,1007.3
2022-11-25T00:29:43.930Z,1007.3
2022-11-25T00:30:47.352Z,1007.3
2022-11-25T00:31:51.021Z,1007.3
2022-11-25T00:32:54.286Z,1007.3
2022-11-25T00:33:57.338Z,1007.3
2022-11-25T00:34:59.216Z,1007.3
2022-11-25T00:36:02.263Z,1007.4
2022-11-25T00:37:05.064Z,1007.4
2022-11-25T00:38:07.563Z,1007.4
2022-11-25T00:39:10.690Z,1007.3
2022-11-25T00:40:12.636Z,1007.4
2022-11-25T00:41:15.408Z,1007.3
2022-11-25T00:42:18.384Z,1007.4
2022-11-25T00:43:21.832Z,1007.4
2022-11-25T00:44:25.333Z,1007.3
2022-11-25T00:45:28.289Z,1007.4
2022-11-25T00:46:31.997Z,1007.4
2022-11-25T00:47:35.322Z,1007.4
2022-11-25T00:48:38.685Z,1007.4
2022-11-25T00:49:42.000Z,1007.4
2022-11-25T00:50:45.510Z,1007.4
2022-11-25T00:51:48.763Z,1007.4
2022-11-25T00:52:51.738Z,1007.4
2022-11-25T00:53:59.432Z,1007.4
2022-11-25T00:55:02.166Z,1007.4
2022-11-25T00:56:04.942Z,1007.4
2022-11-25T00:57:07.915Z,1007.4
2022-11-25T00:58:09.939Z,1007.4
2022-11-25T00:59:13.712Z,1007.4
2022-11-25T01:00:17.204Z,1007.4
2022-11-25T01:01:19.683Z,1007.4
2022-11-25T01:02:23.849Z,1007.4
2022-11-25T01:03:27.181Z,1007.4
2022-11-25T01:04:30.607Z,1007.4
2022-11-25T01:05:33.722Z,1007.3
2022-11-25T01:06:36.564Z,1007.3
2022-11-25T01:07:39.441Z,1007.4
2022-11-25T01:08:43.356Z,1007.3
2022-11-25T01:09:45.772Z,1007.4
2022-11-25T01:10:48.745Z,1007.4
2022-11-25T01:11:52.436Z,1007.4
2022-11-25T01:12:55.196Z,1007.4
2022-11-25T01:14:02.074Z,1007.4
2022-11-25T01:15:05.533Z,1007.4
2022-11-25T01:16:09.303Z,1007.4
2022-11-25T01:17:12.454Z,1007.4
2022-11-25T01:18:14.955Z,1007.4
2022-11-25T01:19:17.653Z,1007.4
2022-11-25T01:20:21.167Z,1007.4
2022-11-25T01:21:24.015Z,1007.4
2022-11-25T01:22:26.796Z,1007.4
2022-11-25T01:23:29.013Z,1007.4
2022-11-25T01:24:31.787Z,1007.4
2022-11-25T01:25:35.005Z,1007.4
2022-11-25T01:26:37.979Z,1007.4
2022-11-25T01:27:40.129Z,1007.4
2022-11-25T01:28:43.485Z,1007.4
2022-11-25T01:29:46.261Z,1007.4
2022-11-25T01:30:49.718Z,1007.4
2022-11-25T01:31:53.874Z,1007.4
2022-11-25T01:32:56.470Z,1007.4
2022-11-25T01:33:59.341Z,1007.4
2022-11-25T01:35:02.116Z,1007.4
2022-11-25T01:36:04.864Z,1007.4
2022-11-25T01:37:07.953Z,1007.4
2022-11-25T01:38:10.931Z,1007.4
2022-11-25T01:39:14.614Z,1007.4
2022-11-25T01:40:17.304Z,1007.4
2022-11-25T01:41:20.611Z,1007.4
2022-11-25T01:42:23.667Z,1007.4
2022-11-25T01:43:26.203Z,1007.4
2022-11-25T01:44:28.436Z,1007.3
2022-11-25T01:45:31.841Z,1007.4
2022-11-25T01:46:35.504Z,1007.4
2022-11-25T01:47:39.556Z,1007.4
2022-11-25T01:48:43.335Z,1007.4
2022-11-25T01:49:46.136Z,1007.4
2022-11-25T01:50:49.173Z,1007.4
2022-11-25T01:51:52.679Z,1007.4
2022-11-25T01:52:55.731Z,1007.4
2022-11-25T01:53:58.240Z,1007.4
2022-11-25T01:55:01.374Z,1007.4
2022-11-25T01:56:04.631Z,1007.4
2022-11-25T01:57:07.406Z,1007.4
2022-11-25T01:58:10.380Z,1007.4
2022-11-25T01:59:14.122Z,1007.4
2022-11-25T02:00:17.455Z,1007.4
2022-11-25T02:01:20.665Z,1007.4
2022-11-25T02:02:24.465Z,1007.4
2022-11-25T02:03:28.448Z,1007.5
2022-11-25T02:04:30.874Z,1007.4
2022-11-25T02:05:34.335Z,1007.4
2022-11-25T02:06:37.582Z,1007.4
2022-11-25T02:07:39.849Z,1007.4
2022-11-25T02:08:43.411Z,1007.4
2022-11-25T02:09:45.863Z,1007.4
2022-11-25T02:10:48.640Z,1007.4
2022-11-25T02:11:51.721Z,1007.3
2022-11-25T02:12:54.943Z,1007.3
2022-11-25T02:13:57.996Z,1007.3
2022-11-25T02:15:00.699Z,1007.3
2022-11-25T02:16:03.327Z,1007.3
2022-11-25T02:17:06.117Z,1007.3
2022-11-25T02:18:09.577Z,1007.2
2022-11-25T02:19:13.077Z,1007.2
2022-11-25T02:20:15.782Z,1007.3
2022-11-25T02:21:18.662Z,1007.3
2022-11-25T02:22:22.281Z,1007.3
2022-11-25T02:23:24.859Z,1007.3
2022-11-25T02:24:28.232Z,1007.2
2022-11-25T02:25:31.006Z,1007.2
2022-11-25T02:26:33.516Z,1007.3
2022-11-25T02:27:37.147Z,1007.2
2022-11-25T02:28:39.949Z,1007.3
2022-11-25T02:29:43.073Z,1007.3
2022-11-25T02:30:45.584Z,1007.3
2022-11-25T02:31:48.157Z,1007.3
2022-11-25T02:32:51.481Z,1007.2
2022-11-25T02:33:55.014Z,1007.3
2022-11-25T02:34:59.049Z,1007.3
2022-11-25T02:36:01.274Z,1007.3
2022-11-25T02:37:03.972Z,1007.2
2022-11-25T02:38:06.401Z,1007.2
2022-11-25T02:39:09.448Z,1007.2
2022-11-25T02:40:11.932Z,1007.2
2022-11-25T02:41:14.437Z,1007.2
2022-11-25T02:42:17.434Z,1007.2
2022-11-25T02:43:19.944Z,1007.2
2022-11-25T02:44:23.531Z,1007.2
2022-11-25T02:45:26.429Z,1007.2
2022-11-25T02:46:29.661Z,1007.2
2022-11-25T02:47:33.418Z,1007.1
2022-11-25T02:49:09.143Z,1007.1
2022-11-25T02:50:14.619Z,1007.1
2022-11-25T02:51:17.482Z,1007.1
2022-11-25T02:52:20.184Z,1007.1
2022-11-25T02:53:22.956Z,1007.2
2022-11-25T02:54:25.111Z,1007.2
2022-11-25T02:55:28.167Z,1007.2
2022-11-25T02:56:31.539Z,1007.2
2022-11-25T02:57:34.617Z,1007.1
2022-11-25T02:58:37.678Z,1007.1
2022-11-25T02:59:40.448Z,1007.1
2022-11-25T03:00:43.719Z,1007.1
2022-11-25T03:01:46.525Z,1007.1
2022-11-25T03:02:50.304Z,1007.1
2022-11-25T03:03:53.079Z,1007.1
2022-11-25T03:04:55.814Z,1007.1
2022-11-25T03:05:59.891Z,1007.1
2022-11-25T03:07:02.785Z,1007.1
2022-11-25T03:08:05.902Z,1007.1
2022-11-25T03:09:08.552Z,1007.1
2022-11-25T03:10:11.044Z,1007.1
2022-11-25T03:11:14.452Z,1007.1
2022-11-25T03:12:17.605Z,1007.1
2022-11-25T03:13:20.954Z,1007.1
2022-11-25T03:14:23.754Z,1007.1
2022-11-25T03:15:26.529Z,1007.1
2022-11-25T03:16:29.830Z,1007.1
2022-11-25T03:17:33.560Z,1007.1
2022-11-25T03:18:36.689Z,1007.1
2022-11-25T03:19:39.937Z,1007.1
2022-11-25T03:20:43.010Z,1007.1
2022-11-25T03:21:47.175Z,1007.1
2022-11-25T03:22:49.947Z,1007.1
2022-11-25T03:23:52.366Z,1007.1
2022-11-25T03:24:55.063Z,1007.1
2022-11-25T03:25:57.857Z,1007.1
2022-11-25T03:27:00.703Z,1007.1
2022-11-25T03:28:03.199Z,1007.1
2022-11-25T03:29:06.262Z,1007.1
2022-11-25T03:30:09.328Z,1007.1
2022-11-25T03:31:12.340Z,1007.1
2022-11-25T03:32:15.893Z,1007.1
2022-11-25T03:33:18.826Z,1007.1
2022-11-25T03:34:22.186Z,1007.1
2022-11-25T03:35:25.001Z,1007.1
2022-11-25T03:36:27.855Z,1007.1
2022-11-25T03:37:32.034Z,1007.1
2022-11-25T03:38:34.836Z,1007.1
2022-11-25T03:39:37.688Z,1007
2022-11-25T03:40:40.738Z,1007.1
2022-11-25T03:41:43.507Z,1007.1
2022-11-25T03:42:46.483Z,1007.1
2022-11-25T03:43:48.780Z,1007
2022-11-25T03:44:51.279Z,1007
2022-11-25T03:45:54.216Z,1007
2022-11-25T03:46:57.152Z,1007
2022-11-25T03:47:59.917Z,1007
2022-11-25T03:49:03.298Z,1006.9
2022-11-25T03:50:05.789Z,1006.9
2022-11-25T03:51:08.563Z,1007
2022-11-25T03:52:11.284Z,1007
2022-11-25T03:53:15.451Z,1007
2022-11-25T03:54:18.305Z,1007
2022-11-25T03:55:20.738Z,1007
2022-11-25T03:56:23.230Z,1007
2022-11-25T03:57:26.625Z,1007
2022-11-25T03:58:29.127Z,1007
2022-11-25T03:59:32.591Z,1007
2022-11-25T04:00:35.348Z,1007
2022-11-25T04:01:44.761Z,1007.1
2022-11-25T04:02:47.939Z,1007.1
2022-11-25T04:03:51.556Z,1007
2022-11-25T04:04:54.811Z,1007
2022-11-25T04:05:57.526Z,1007
2022-11-25T04:07:00.583Z,1006.9
2022-11-25T04:08:03.874Z,1006.9
2022-11-25T04:09:08.319Z,1007
2022-11-25T04:10:11.439Z,1007
2022-11-25T04:11:15.107Z,1006.9
2022-11-25T04:12:18.496Z,1006.9
2022-11-25T04:13:21.263Z,1007
2022-11-25T04:14:24.668Z,1007
2022-11-25T04:15:27.745Z,1007
2022-11-25T04:16:31.530Z,1006.9
2022-11-25T04:17:34.669Z,1006.9
2022-11-25T04:18:37.811Z,1006.9
2022-11-25T04:19:39.954Z,1006.9
2022-11-25T04:20:42.715Z,1006.9
2022-11-25T04:21:52.657Z,1006.9
2022-11-25T04:22:55.633Z,1007
2022-11-25T04:23:58.143Z,1007
2022-11-25T04:25:02.344Z,1006.9
2022-11-25T04:26:05.343Z,1007
2022-11-25T04:27:07.907Z,1007
2022-11-25T04:28:10.601Z,1007
2022-11-25T04:29:14.050Z,1007.1
2022-11-25T04:30:16.833Z,1007
2022-11-25T04:31:20.110Z,1007
2022-11-25T04:32:22.988Z,1007
2022-11-25T04:33:25.764Z,1007
2022-11-25T04:34:28.836Z,1007
2022-11-25T04:35:31.394Z,1007
2022-11-25T04:36:34.240Z,1007
2022-11-25T04:37:36.729Z,1007
2022-11-25T04:38:39.857Z,1007
2022-11-25T04:39:43.009Z,1007.1
2022-11-25T04:40:47.166Z,1007.1
2022-11-25T04:41:50.132Z,1007.1
2022-11-25T04:43:03.621Z,1007.1
2022-11-25T04:44:12.476Z,1007.1
2022-11-25T04:45:24.275Z,1007
2022-11-25T04:46:27.679Z,1007
2022-11-25T04:47:29.813Z,1007
2022-11-25T04:48:32.737Z,1007.1
2022-11-25T04:49:35.509Z,1007.1
2022-11-25T04:50:38.856Z,1007.1
2022-11-25T04:51:41.916Z,1007.1
2022-11-25T04:52:44.359Z,1007.1
2022-11-25T04:53:47.828Z,1007.2
2022-11-25T04:54:51.012Z,1007.2
2022-11-25T04:55:55.241Z,1007.2
2022-11-25T04:56:57.665Z,1007.2
2022-11-25T04:58:00.642Z,1007.2
2022-11-25T04:59:03.329Z,1007.2
2022-11-25T05:00:06.489Z,1007.2
2022-11-25T05:01:09.740Z,1007.2
2022-11-25T05:02:13.551Z,1007.2
2022-11-25T05:03:16.493Z,1007.2
2022-11-25T05:04:19.194Z,1007.2
2022-11-25T05:05:21.698Z,1007.2
2022-11-25T05:06:24.753Z,1007.2
2022-11-25T05:07:27.756Z,1007.3
2022-11-25T05:08:31.552Z,1007.3
2022-11-25T05:09:34.043Z,1007.3
2022-11-25T05:10:36.938Z,1007.4
2022-11-25T05:11:41.045Z,1007.3
2022-11-25T05:12:44.025Z,1007.3
2022-11-25T05:13:47.381Z,1007.4
2022-11-25T05:14:50.158Z,1007.3
2022-11-25T05:15:52.934Z,1007.3
2022-11-25T05:16:56.179Z,1007.3
2022-11-25T05:17:59.087Z,1007.3
2022-11-25T05:19:02.509Z,1007.3
2022-11-25T05:20:05.636Z,1007.3
2022-11-25T05:21:08.689Z,1007.3
2022-11-25T05:22:11.774Z,1007.3
2022-11-25T05:23:14.827Z,1007.4
2022-11-25T05:24:17.236Z,1007.4
2022-11-25T05:25:20.107Z,1007.4
2022-11-25T05:26:23.104Z,1007.4
2022-11-25T05:27:27.241Z,1007.4
2022-11-25T05:28:30.375Z,1007.4
2022-11-25T05:29:33.213Z,1007.4
2022-11-25T05:30:35.477Z,1007.4
2022-11-25T05:31:38.893Z,1007.4
2022-11-25T05:32:42.030Z,1007.4
2022-11-25T05:33:44.999Z,1007.5
2022-11-25T05:34:47.833Z,1007.5
2022-11-25T05:35:50.686Z,1007.5
2022-11-25T05:36:53.948Z,1007.6
2022-11-25T05:37:55.952Z,1007.6
2022-11-25T05:38:58.721Z,1007.6
2022-11-25T05:40:01.365Z,1007.6
2022-11-25T05:41:04.671Z,1007.6
2022-11-25T05:42:08.045Z,1007.6
2022-11-25T05:43:12.117Z,1007.7
2022-11-25T05:44:23.180Z,1007.6
2022-11-25T05:45:26.615Z,1007.7
2022-11-25T05:46:29.999Z,1007.7
2022-11-25T05:47:33.459Z,1007.7
2022-11-25T05:48:36.238Z,1007.7
2022-11-25T05:49:39.306Z,1007.7
2022-11-25T05:50:41.803Z,1007.7
2022-11-25T05:51:45.236Z,1007.7
2022-11-25T05:52:48.427Z,1007.7
2022-11-25T05:53:51.193Z,1007.6
2022-11-25T05:54:57.929Z,1007.7
2022-11-25T05:56:01.318Z,1007.6
2022-11-25T05:57:03.890Z,1007.6
2022-11-25T05:58:07.265Z,1007.6
2022-11-25T05:59:11.461Z,1007.7
2022-11-25T06:00:14.921Z,1007.6
2022-11-25T06:01:17.981Z,1007.6
2022-11-25T06:02:21.500Z,1007.6
2022-11-25T06:03:24.567Z,1007.6
2022-11-25T06:04:27.543Z,1007.7
2022-11-25T06:05:30.030Z,1007.6
2022-11-25T06:06:32.827Z,1007.6
2022-11-25T06:07:36.041Z,1007.7
2022-11-25T06:08:39.448Z,1007.7
2022-11-25T06:09:41.681Z,1007.6
2022-11-25T06:10:44.177Z,1007.7
2022-11-25T06:11:46.957Z,1007.7
2022-11-25T06:12:49.464Z,1007.7
2022-11-25T06:13:53.198Z,1007.7
2022-11-25T06:14:57.296Z,1007.7
2022-11-25T06:16:07.903Z,1007.7
2022-11-25T06:17:11.337Z,1007.7
2022-11-25T06:18:14.804Z,1007.7
2022-11-25T06:19:17.929Z,1007.7
2022-11-25T06:20:21.363Z,1007.7
2022-11-25T06:21:23.574Z,1007.7
2022-11-25T06:22:27.187Z,1007.7
2022-11-25T06:23:30.240Z,1007.7
2022-11-25T06:24:33.434Z,1007.8
2022-11-25T06:25:37.809Z,1007.7
2022-11-25T06:26:41.240Z,1007.7
2022-11-25T06:28:13.254Z,1007.7
2022-11-25T06:29:15.733Z,1007.6
2022-11-25T06:30:19.891Z,1007.6
2022-11-25T06:31:23.037Z,1007.6
2022-11-25T06:32:26.136Z,1007.6
2022-11-25T06:33:28.934Z,1007.6
2022-11-25T06:34:32.546Z,1007.6
2022-11-25T06:35:36.082Z,1007.6
2022-11-25T06:36:38.581Z,1007.6
2022-11-25T06:37:41.352Z,1007.6
2022-11-25T06:38:44.038Z,1007.6
2022-11-25T06:39:47.121Z,1007.6
2022-11-25T06:40:50.112Z,1007.7
2022-11-25T06:42:02.121Z,1007.6
2022-11-25T06:43:04.404Z,1007.7
2022-11-25T06:44:07.454Z,1007.7
2022-11-25T06:45:10.203Z,1007.7
2022-11-25T06:46:15.079Z,1007.7
2022-11-25T06:47:28.037Z,1007.7
2022-11-25T06:48:30.510Z,1007.7
2022-11-25T06:49:33.850Z,1007.7
2022-11-25T06:50:37.247Z,1007.7
2022-11-25T06:51:39.940Z,1007.7
2022-11-25T06:52:42.780Z,1007.8
2022-11-25T06:53:45.285Z,1007.8
2022-11-25T06:54:48.053Z,1007.7
2022-11-25T06:55:51.530Z,1007.8
2022-11-25T06:56:54.670Z,1007.8
2022-11-25T06:58:35.216Z,1007.8
2022-11-25T06:59:39.310Z,1007.8
2022-11-25T07:00:41.539Z,1007.8
2022-11-25T07:01:45.816Z,1007.8
2022-11-25T07:02:49.271Z,1007.8
2022-11-25T07:03:52.814Z,1007.8
2022-11-25T07:04:55.340Z,1007.8
2022-11-25T07:05:58.401Z,1007.8
2022-11-25T07:07:01.240Z,1007.8
2022-11-25T07:08:04.399Z,1007.8
2022-11-25T07:09:07.438Z,1007.8
2022-11-25T07:10:10.216Z,1007.8
2022-11-25T07:11:13.261Z,1007.8
2022-11-25T07:12:15.760Z,1007.8
2022-11-25T07:13:18.530Z,1007.8
2022-11-25T07:14:21.313Z,1007.8
2022-11-25T07:15:24.372Z,1007.8
2022-11-25T07:16:28.039Z,1007.8
2022-11-25T07:17:32.544Z,1007.9
2022-11-25T07:18:35.098Z,1007.8
2022-11-25T07:19:38.168Z,1007.9
2022-11-25T07:20:41.049Z,1007.9
2022-11-25T07:21:44.199Z,1007.9
2022-11-25T07:22:47.002Z,1007.9
2022-11-25T07:23:49.222Z,1007.9
2022-11-25T07:24:51.802Z,1007.9
2022-11-25T07:25:54.729Z,1007.9
2022-11-25T07:26:58.445Z,1008
2022-11-25T07:28:02.432Z,1008
2022-11-25T07:29:23.367Z,1008
2022-11-25T07:32:35.024Z,1007.9
2022-11-25T07:33:39.169Z,1008
2022-11-25T07:34:42.526Z,1008
2022-11-25T07:35:45.953Z,1007.9
2022-11-25T07:36:48.650Z,1007.9
2022-11-25T07:37:51.996Z,1007.9
2022-11-25T07:38:54.877Z,1007.9
2022-11-25T07:39:58.035Z,1007.9
2022-11-25T07:41:00.728Z,1007.9
2022-11-25T07:42:03.879Z,1007.9
2022-11-25T07:43:07.863Z,1007.8
2022-11-25T07:44:11.371Z,1007.9
2022-11-25T07:45:14.701Z,1007.8
2022-11-25T07:46:20.852Z,1007.9
2022-11-25T07:47:29.694Z,1007.9
2022-11-25T07:48:32.782Z,1007.9
2022-11-25T07:49:37.204Z,1007.8
2022-11-25T07:50:41.333Z,1007.8
2022-11-25T07:51:44.772Z,1007.8
2022-11-25T07:52:48.190Z,1007.7
2022-11-25T07:53:51.243Z,1007.7
2022-11-25T07:54:54.807Z,1007.7
2022-11-25T07:55:57.308Z,1007.7
2022-11-25T07:57:00.003Z,1007.7
2022-11-25T07:58:02.967Z,1007.7
2022-11-25T07:59:06.079Z,1007.7
2022-11-25T08:00:09.154Z,1007.7
2022-11-25T08:01:12.019Z,1007.7
2022-11-25T08:02:16.022Z,1007.7
2022-11-25T08:03:19.525Z,1007.8
2022-11-25T08:04:23.157Z,1007.7
2022-11-25T08:05:26.978Z,1007.8
2022-11-25T08:06:30.041Z,1007.7
2022-11-25T08:07:37.265Z,1007.7
2022-11-25T08:08:40.670Z,1007.7
2022-11-25T08:09:43.467Z,1007.8
2022-11-25T08:10:46.607Z,1007.8
2022-11-25T08:11:49.117Z,1007.8
2022-11-25T08:12:52.182Z,1007.8
2022-11-25T08:13:55.309Z,1007.8
2022-11-25T08:14:58.285Z,1007.8
2022-11-25T08:16:01.135Z,1007.8
2022-11-25T08:17:04.573Z,1007.8
2022-11-25T08:18:07.620Z,1007.9
2022-11-25T08:19:10.388Z,1007.9
2022-11-25T08:20:13.249Z,1007.9
2022-11-25T08:21:17.349Z,1007.8
2022-11-25T08:22:20.461Z,1007.8
2022-11-25T08:23:23.890Z,1007.8
2022-11-25T08:24:26.814Z,1007.9
2022-11-25T08:25:29.672Z,1007.8
2022-11-25T08:26:32.086Z,1007.8
2022-11-25T08:27:35.733Z,1007.9
2022-11-25T08:28:39.084Z,1007.9
2022-11-25T08:29:42.157Z,1007.9
2022-11-25T08:30:45.131Z,1007.8
2022-11-25T08:31:48.452Z,1007.9
2022-11-25T08:32:51.059Z,1007.9
2022-11-25T08:33:54.184Z,1007.9
2022-11-25T08:34:57.542Z,1007.9
2022-11-25T08:36:01.060Z,1007.9
2022-11-25T08:37:05.181Z,1008
2022-11-25T08:38:07.653Z,1008
2022-11-25T08:39:52.136Z,1008
2022-11-25T08:40:59.510Z,1008
2022-11-25T08:42:03.135Z,1008
2022-11-25T08:43:06.512Z,1007.9
2022-11-25T08:44:10.222Z,1007.9
2022-11-25T08:45:13.215Z,1007.9
2022-11-25T08:46:16.464Z,1007.9
2022-11-25T08:47:20.256Z,1007.9
2022-11-25T08:48:22.953Z,1007.9
2022-11-25T08:49:26.201Z,1007.9
2022-11-25T08:50:29.048Z,1008
2022-11-25T08:51:32.205Z,1007.9
2022-11-25T08:52:36.297Z,1007.9
2022-11-25T08:53:39.332Z,1007.9
2022-11-25T08:54:42.476Z,1007.9
2022-11-25T08:55:44.419Z,1007.9
2022-11-25T08:56:47.193Z,1007.9
2022-11-25T08:57:49.636Z,1007.9
2022-11-25T08:58:52.791Z,1007.9
2022-11-25T08:59:56.133Z,1007.9
2022-11-25T09:00:58.701Z,1007.9
2022-11-25T09:02:01.997Z,1007.8
2022-11-25T09:03:06.046Z,1007.8
2022-11-25T09:04:09.876Z,1007.8
2022-11-25T09:05:12.945Z,1007.8
2022-11-25T09:06:15.723Z,1007.8
2022-11-25T09:07:18.879Z,1007.8
2022-11-25T09:08:23.211Z,1007.8
2022-11-25T09:09:26.886Z,1007.9
2022-11-25T09:10:29.487Z,1007.9
2022-11-25T09:11:32.233Z,1007.9
2022-11-25T09:12:35.854Z,1007.9
2022-11-25T09:13:39.640Z,1007.9
2022-11-25T09:14:42.644Z,1007.9
2022-11-25T09:15:45.772Z,1007.9
2022-11-25T09:16:49.376Z,1007.9
2022-11-25T09:17:51.867Z,1007.8
2022-11-25T09:18:56.927Z,1007.8
2022-11-25T09:19:59.630Z,1007.8
2022-11-25T09:21:02.810Z,1007.8
2022-11-25T09:22:05.858Z,1007.8
2022-11-25T09:23:08.889Z,1007.8
2022-11-25T09:24:12.949Z,1007.8
2022-11-25T09:25:16.421Z,1007.7
2022-11-25T09:26:19.229Z,1007.7
2022-11-25T09:27:22.265Z,1007.7
2022-11-25T09:28:24.976Z,1007.8
2022-11-25T09:29:27.770Z,1007.7
2022-11-25T09:30:30.573Z,1007.7
2022-11-25T09:31:34.131Z,1007.7
2022-11-25T09:32:37.093Z,1007.8
2022-11-25T09:33:41.069Z,1007.7
2022-11-25T09:34:44.406Z,1007.7
2022-11-25T09:35:48.186Z,1007.7
2022-11-25T09:36:50.889Z,1007.7
2022-11-25T09:37:54.401Z,1007.7
2022-11-25T09:38:57.037Z,1007.8
2022-11-25T09:40:01.187Z,1007.7
2022-11-25T09:41:03.728Z,1007.8
2022-11-25T09:42:05.968Z,1007.8
2022-11-25T09:43:09.127Z,1007.8
2022-11-25T09:44:12.549Z,1007.9
2022-11-25T09:45:15.905Z,1007.9
2022-11-25T09:46:19.119Z,1007.9
2022-11-25T09:47:22.373Z,1007.9
2022-11-25T09:48:25.263Z,1007.9
2022-11-25T09:49:28.416Z,1007.8
2022-11-25T09:50:31.158Z,1007.8
2022-11-25T09:51:33.959Z,1007.9
2022-11-25T09:52:36.942Z,1007.9
2022-11-25T09:53:40.370Z,1007.9
2022-11-25T09:54:43.295Z,1008
2022-11-25T09:55:47.107Z,1008
2022-11-25T09:56:49.893Z,1008
2022-11-25T09:57:59.947Z,1008
2022-11-25T09:59:02.751Z,1008
2022-11-25T10:00:05.469Z,1008
2022-11-25T10:01:08.842Z,1008.1
2022-11-25T10:02:12.312Z,1008
2022-11-25T10:03:15.393Z,1008
2022-11-25T10:04:19.148Z,1007.9
2022-11-25T10:05:22.131Z,1007.9
2022-11-25T10:06:25.941Z,1007.9
2022-11-25T10:07:29.024Z,1007.9
2022-11-25T10:08:32.067Z,1007.8
2022-11-25T10:09:36.414Z,1007.8
2022-11-25T10:10:41.467Z,1007.8
2022-11-25T10:11:45.540Z,1007.8
2022-11-25T10:12:49.255Z,1007.8
2022-11-25T10:13:52.132Z,1007.8
2022-11-25T10:14:55.786Z,1007.8
2022-11-25T10:15:58.386Z,1007.9
2022-11-25T10:17:02.458Z,1007.8
2022-11-25T10:18:05.805Z,1007.8
2022-11-25T10:19:09.306Z,1007.8
2022-11-25T10:20:12.272Z,1007.8
2022-11-25T10:21:15.687Z,1007.8
2022-11-25T10:22:19.087Z,1007.8
2022-11-25T10:23:28.716Z,1007.8
2022-11-25T10:24:31.294Z,1007.8
2022-11-25T10:25:44.531Z,1007.8
2022-11-25T10:26:48.406Z,1007.8
2022-11-25T10:27:51.839Z,1007.9
2022-11-25T10:28:54.617Z,1007.9
2022-11-25T10:29:57.318Z,1008
2022-11-25T10:31:00.820Z,1008
2022-11-25T10:32:03.171Z,1008
2022-11-25T10:33:05.957Z,1007.9
2022-11-25T10:34:09.320Z,1008
2022-11-25T10:35:12.163Z,1008
2022-11-25T10:36:15.492Z,1008
2022-11-25T10:37:18.329Z,1008
2022-11-25T10:38:20.917Z,1008
2022-11-25T10:39:24.363Z,1008
2022-11-25T10:40:27.442Z,1008
2022-11-25T10:41:30.559Z,1008
2022-11-25T10:42:34.495Z,1008.1
2022-11-25T10:43:37.887Z,1008
2022-11-25T10:44:41.147Z,1008
2022-11-25T10:45:44.449Z,1007.9
2022-11-25T10:47:14.980Z,1007.9
2022-11-25T10:48:19.082Z,1008
2022-11-25T10:49:22.148Z,1008
2022-11-25T10:50:25.929Z,1008
2022-11-25T10:51:29.181Z,1007.9
2022-11-25T10:52:32.164Z,1007.9
2022-11-25T10:53:34.675Z,1007.9
2022-11-25T10:54:37.666Z,1008
2022-11-25T10:55:40.253Z,1008
2022-11-25T10:56:43.728Z,1008
2022-11-25T10:57:47.834Z,1008
2022-11-25T10:58:50.886Z,1008
2022-11-25T10:59:53.656Z,1008
2022-11-25T11:00:56.629Z,1008.1
2022-11-25T11:01:59.897Z,1008.1
2022-11-25T11:03:03.922Z,1008
2022-11-25T11:04:07.216Z,1008
2022-11-25T11:05:10.305Z,1008
2022-11-25T11:06:12.724Z,1008
2022-11-25T11:07:15.228Z,1008
2022-11-25T11:08:19.113Z,1008.1
2022-11-25T11:09:22.160Z,1008
2022-11-25T11:10:25.005Z,1008
2022-11-25T11:11:28.197Z,1008.1
2022-11-25T11:12:31.563Z,1008.1
2022-11-25T11:13:35.620Z,1008
2022-11-25T11:14:39.699Z,1008.1
2022-11-25T11:15:43.273Z,1008.1
2022-11-25T11:16:46.235Z,1008.1
2022-11-25T11:17:49.384Z,1008.1
2022-11-25T11:18:53.090Z,1008.1
2022-11-25T11:19:55.965Z,1008.1
2022-11-25T11:20:58.808Z,1008.1
2022-11-25T11:22:02.000Z,1008.1
2022-11-25T11:23:09.607Z,1008.2
2022-11-25T11:24:12.775Z,1008.1
2022-11-25T11:25:16.175Z,1008.1
2022-11-25T11:26:19.529Z,1008.1
2022-11-25T11:27:22.582Z,1008.1
2022-11-25T11:28:25.962Z,1008.1
2022-11-25T11:29:30.176Z,1008.1
2022-11-25T11:30:32.941Z,1008.1
2022-11-25T11:31:36.478Z,1008.2
2022-11-25T11:32:39.572Z,1008.1
2022-11-25T11:33:43.277Z,1008.1
2022-11-25T11:34:46.448Z,1008.2
2022-11-25T11:35:49.855Z,1008.2
2022-11-25T11:36:53.000Z,1008.2
2022-11-25T11:37:56.413Z,1008.2
2022-11-25T11:38:59.186Z,1008.2
2022-11-25T11:40:02.898Z,1008.2
2022-11-25T11:41:05.598Z,1008.2
2022-11-25T11:42:08.650Z,1008.2
2022-11-25T11:43:11.145Z,1008.2
2022-11-25T11:44:14.182Z,1008.2
2022-11-25T11:45:18.260Z,1008.3
2022-11-25T11:46:21.365Z,1008.2
2022-11-25T11:47:25.422Z,1008.2
2022-11-25T11:48:28.772Z,1008.2
2022-11-25T11:49:32.299Z,1008.3
2022-11-25T11:50:35.463Z,1008.2
2022-11-25T11:51:38.593Z,1008.2
2022-11-25T11:52:41.651Z,1008.2
2022-11-25T11:53:44.370Z,1008.2
2022-11-25T11:54:47.707Z,1008.2
2022-11-25T11:56:34.597Z,1008.2
2022-11-25T11:57:39.059Z,1008.2
2022-11-25T11:58:42.420Z,1008.1
2022-11-25T11:59:45.806Z,1008.1
2022-11-25T12:00:50.051Z,1008.1
2022-11-25T12:01:53.139Z,1008.1
2022-11-25T12:02:56.372Z,1008.1
2022-11-25T12:03:59.503Z,1008.1
2022-11-25T12:05:02.283Z,1008.1
2022-11-25T12:06:05.413Z,1008.2
2022-11-25T12:07:08.873Z,1008.2
2022-11-25T12:08:12.177Z,1008.2
2022-11-25T12:09:15.532Z,1008.2
2022-11-25T12:10:18.903Z,1008.2
2022-11-25T12:11:21.982Z,1008.2
2022-11-25T12:12:24.963Z,1008.2
2022-11-25T12:13:27.643Z,1008.2
2022-11-25T12:14:30.689Z,1008.2
2022-11-25T12:15:34.083Z,1008.1
2022-11-25T12:16:38.456Z,1008.1
2022-11-25T12:17:42.279Z,1008.1
2022-11-25T12:18:45.251Z,1008.2
2022-11-25T12:19:48.502Z,1008.2
2022-11-25T12:20:51.647Z,1008.2
2022-11-25T12:21:54.623Z,1008.2
2022-11-25T12:22:58.333Z,1008.2
2022-11-25T12:24:01.301Z,1008.2
2022-11-25T12:25:04.433Z,1008.2
2022-11-25T12:26:08.113Z,1008.2
2022-11-25T12:27:11.474Z,1008.2
2022-11-25T12:28:15.109Z,1008.2
2022-11-25T12:29:17.332Z,1008.2
2022-11-25T12:30:20.113Z,1008.2
2022-11-25T12:31:23.301Z,1008.2
2022-11-25T12:32:27.738Z,1008.2
2022-11-25T12:33:31.173Z,1008.2
2022-11-25T12:34:33.762Z,1008.2
2022-11-25T12:35:38.076Z,1008.2
2022-11-25T12:36:40.506Z,1008.2
2022-11-25T12:37:43.274Z,1008.2
2022-11-25T12:38:46.625Z,1008.2
2022-11-25T12:39:49.893Z,1008.2
2022-11-25T12:40:52.756Z,1008.2
2022-11-25T12:41:56.092Z,1008.2
2022-11-25T12:42:59.025Z,1008.2
2022-11-25T12:44:02.066Z,1008.2
2022-11-25T12:45:05.394Z,1008.2
2022-11-25T12:46:08.547Z,1008.2
2022-11-25T12:47:11.714Z,1008.2
2022-11-25T12:48:21.793Z,1008.2
2022-11-25T12:49:24.285Z,1008.2
2022-11-25T12:50:28.521Z,1008.2
2022-11-25T12:51:32.504Z,1008.2
2022-11-25T12:52:35.836Z,1008.2
2022-11-25T12:53:38.268Z,1008.3
2022-11-25T12:54:41.349Z,1008.3
2022-11-25T12:55:44.470Z,1008.3
2022-11-25T12:56:47.519Z,1008.2
2022-11-25T12:57:50.699Z,1008.3
2022-11-25T12:58:53.677Z,1008.3
2022-11-25T13:00:40.884Z,1008.3
2022-11-25T13:01:46.707Z,1008.3
2022-11-25T13:02:51.132Z,1008.4
2022-11-25T13:03:55.809Z,1008.4
2022-11-25T13:05:39.903Z,1008.4
2022-11-25T13:06:43.847Z,1008.3
2022-11-25T13:07:47.623Z,1008.4
2022-11-25T13:08:51.484Z,1008.4
2022-11-25T13:09:54.932Z,1008.4
2022-11-25T13:10:58.924Z,1008.4
2022-11-25T13:12:04.912Z,1008.4
2022-11-25T13:13:18.614Z,1008.4
2022-11-25T13:14:25.389Z,1008.3
2022-11-25T13:15:31.564Z,1008.4
2022-11-25T13:16:38.443Z,1008.4
2022-11-25T13:17:44.603Z,1008.4
2022-11-25T13:18:48.123Z,1008.4
2022-11-25T13:19:52.223Z,1008.4
2022-11-25T13:20:54.786Z,1008.4
2022-11-25T13:21:58.568Z,1008.4
2022-11-25T13:23:02.248Z,1008.4
2022-11-25T13:24:05.304Z,1008.4